Time;durP1;ratioP1;P1;durP2;ratioP2;P2;SDS_P1;SDS_P2;PMS_P1;PMS_P2;Temp;Humidity;BMP_temperature;BMP_pressure;BME280_temperature;BME280_humidity;BME280_pressure;Samples;Min_cycle;Max_cycle;Signal;HPM_P1;HPM_P2
2021/01/26 00:00:59;;;;;;;7.93;5.60;;;;;;;3.10;73.74;100634.75;5014842;28;20026;-81
2021/01/26 00:03:25;;;;;;;11.13;5.80;;;;;;;3.08;74.13;100633.94;5015169;28;20018;-81
2021/01/26 00:05:50;;;;;;;10.63;5.95;;;;;;;2.96;74.93;100639.50;5014703;28;20026;-81
2021/01/26 00:08:16;;;;;;;11.90;6.45;;;;;;;3.07;74.86;100640.00;5014557;28;20053;-81
2021/01/26 00:10:41;;;;;;;10.68;5.93;;;;;;;3.24;74.26;100644.66;5014157;28;20057;-81
2021/01/26 00:13:08;;;;;;;14.77;5.70;;;;;;;3.39;74.17;100640.66;5014973;28;20077;-81
2021/01/26 00:15:34;;;;;;;12.25;6.35;;;;;;;3.44;74.26;100648.31;5014665;28;20041;-81
2021/01/26 00:18:00;;;;;;;6.35;4.78;;;;;;;3.39;72.79;100651.06;5014638;28;20033;-81
2021/01/26 00:20:26;;;;;;;9.88;5.70;;;;;;;3.29;73.38;100652.28;5014539;28;20079;-81
2021/01/26 00:22:52;;;;;;;9.18;6.13;;;;;;;3.05;74.06;100656.53;5014219;28;20111;-81
2021/01/26 00:25:26;;;;;;;7.63;5.63;;;;;;;3.21;74.39;100657.72;5018569;28;20113;-81
2021/01/26 00:27:51;;;;;;;7.53;5.13;;;;;;;3.40;73.68;100660.56;5033900;28;20040;-81
2021/01/26 00:30:21;;;;;;;6.43;4.72;;;;;;;3.35;72.94;100654.66;5032915;28;20025;-81
2021/01/26 00:32:46;;;;;;;7.15;5.53;;;;;;;3.36;73.98;100652.00;5033945;28;20535;-81
2021/01/26 00:35:13;;;;;;;8.35;4.43;;;;;;;3.49;73.64;100660.22;5033897;28;20112;-81
2021/01/26 00:37:38;;;;;;;6.60;4.50;;;;;;;3.57;73.56;100660.81;5034083;28;20364;-81
2021/01/26 00:40:05;;;;;;;4.80;4.13;;;;;;;3.66;72.85;100654.44;5029567;28;20028;-81
2021/01/26 00:42:31;;;;;;;9.10;4.88;;;;;;;3.81;72.44;100653.06;5031987;28;20099;-81
2021/01/26 00:44:57;;;;;;;8.10;4.47;;;;;;;3.72;72.50;100653.38;5032299;28;20479;-81
2021/01/26 00:47:22;;;;;;;6.15;4.82;;;;;;;3.64;73.25;100645.88;5033733;28;20041;-80
2021/01/26 00:49:47;;;;;;;5.93;3.85;;;;;;;3.38;72.33;100645.03;5033761;28;20029;-81
2021/01/26 00:52:13;;;;;;;7.47;4.18;;;;;;;3.51;72.60;100640.25;5033618;28;20033;-81
2021/01/26 00:54:38;;;;;;;6.15;4.30;;;;;;;3.48;72.18;100637.78;5032507;28;20053;-81
2021/01/26 00:57:05;;;;;;;5.18;3.80;;;;;;;3.25;73.44;100635.94;5013665;28;20037;-81
2021/01/26 00:59:30;;;;;;;5.40;3.95;;;;;;;3.15;73.76;100647.53;5013760;28;20022;-81
2021/01/26 01:01:57;;;;;;;6.70;3.53;;;;;;;3.01;73.14;100644.56;5013715;28;20118;-81
2021/01/26 01:04:22;;;;;;;4.57;3.33;;;;;;;2.96;72.68;100642.09;5013581;28;20354;-81
2021/01/26 01:06:48;;;;;;;9.10;3.30;;;;;;;3.02;72.70;100641.94;5013697;28;20022;-81
2021/01/26 01:09:13;;;;;;;7.45;3.70;;;;;;;3.04;74.20;100640.13;5013703;28;20025;-80
2021/01/26 01:11:38;;;;;;;6.40;3.42;;;;;;;2.97;73.21;100638.63;5032396;28;20387;-81
2021/01/26 01:14:04;;;;;;;7.00;3.80;;;;;;;2.75;73.51;100649.69;5033805;28;20472;-81
2021/01/26 01:16:30;;;;;;;5.00;3.63;;;;;;;2.67;74.71;100638.72;5033249;28;20042;-81
2021/01/26 01:18:55;;;;;;;4.68;3.55;;;;;;;2.68;74.07;100648.19;5033109;28;20026;-81
2021/01/26 01:21:20;;;;;;;6.05;3.65;;;;;;;2.68;74.73;100648.19;5019794;28;20034;-81
2021/01/26 01:23:45;;;;;;;3.67;2.88;;;;;;;2.83;74.61;100649.44;5021290;28;20033;-81
2021/01/26 01:26:11;;;;;;;5.18;3.45;;;;;;;2.85;75.33;100650.25;5033222;28;20029;-81
2021/01/26 01:28:36;;;;;;;8.15;3.20;;;;;;;2.94;73.58;100651.69;5033033;28;20056;-81
2021/01/26 01:31:02;;;;;;;4.53;2.97;;;;;;;2.96;74.04;100647.28;5033052;28;20036;-81
2021/01/26 01:33:27;;;;;;;4.53;3.00;;;;;;;2.89;73.88;100648.41;5032781;28;20025;-81
2021/01/26 01:35:52;;;;;;;5.57;2.78;;;;;;;2.94;73.14;100642.19;5023822;28;20108;-81
2021/01/26 01:38:18;;;;;;;8.75;2.90;;;;;;;2.88;71.90;100649.28;5013128;28;20396;-81
2021/01/26 01:40:43;;;;;;;6.28;2.53;;;;;;;2.93;73.65;100643.06;5013139;28;20484;-81
2021/01/26 01:43:09;;;;;;;5.88;3.15;;;;;;;2.94;72.80;100654.28;5013175;28;20556;-81
2021/01/26 01:45:34;;;;;;;4.57;2.55;;;;;;;3.03;72.48;100659.19;5013051;28;20381;-81
2021/01/26 01:48:07;;;;;;;3.67;2.80;;;;;;;2.97;72.72;100654.19;5012861;28;20084;-81
2021/01/26 01:50:40;;;;;;;4.55;2.67;;;;;;;2.83;72.96;100654.63;5020899;28;20025;-81
2021/01/26 01:53:12;;;;;;;2.90;2.38;;;;;;;2.69;74.10;100655.06;5032531;28;20352;-81
2021/01/26 01:55:41;;;;;;;3.90;2.50;;;;;;;2.68;73.77;100671.50;5032806;28;20017;-81
2021/01/26 01:58:14;;;;;;;3.50;2.70;;;;;;;2.77;73.67;100668.63;5032152;28;20013;-81
2021/01/26 02:00:40;;;;;;;3.55;2.83;;;;;;;2.89;74.32;100669.16;5032630;28;20061;-81
2021/01/26 02:03:21;;;;;;;3.53;2.30;;;;;;;2.91;73.64;100672.56;5032498;28;20068;-81
2021/01/26 02:05:50;;;;;;;12.85;3.67;;;;;;;3.07;72.27;100662.53;5019876;28;20037;-81
2021/01/26 02:08:29;;;;;;;5.90;2.50;;;;;;;3.11;73.28;100666.72;5012363;28;20124;-81
2021/01/26 02:10:54;;;;;;;3.70;2.50;;;;;;;3.15;73.96;100663.94;5012429;28;20029;-81
2021/01/26 02:13:19;;;;;;;4.88;2.67;;;;;;;3.24;72.38;100664.53;5012695;28;20361;-81
2021/01/26 02:15:45;;;;;;;3.75;2.40;;;;;;;3.32;72.73;100660.81;5012309;28;20028;-81
2021/01/26 02:18:30;;;;;;;4.22;2.22;;;;;;;3.26;72.72;100660.16;5012537;28;20049;-81
2021/01/26 02:21:34;;;;;;;4.30;2.50;;;;;;;3.17;72.40;100656.13;5027744;28;20032;-81
2021/01/26 02:24:35;;;;;;;5.07;2.85;;;;;;;3.08;72.11;100651.22;5021105;28;20124;-81
2021/01/26 02:27:33;;;;;;;2.78;2.38;;;;;;;3.25;72.79;100656.72;5031964;28;20083;-81
2021/01/26 02:30:36;;;;;;;3.15;2.40;;;;;;;2.59;73.87;100664.03;5032025;28;20021;-81
2021/01/26 02:33:40;;;;;;;3.30;2.53;;;;;;;2.95;72.68;100656.00;5030446;28;20487;-81
2021/01/26 02:36:30;;;;;;;3.35;2.13;;;;;;;3.10;71.13;100655.50;4998958;28;20045;-81
2021/01/26 02:39:20;;;;;;;4.38;2.15;;;;;;;3.08;73.43;100657.28;5031929;28;20067;-81
2021/01/26 02:42:10;;;;;;;5.85;2.55;;;;;;;2.99;73.89;100652.41;5031704;28;20083;-81
2021/01/26 02:45:10;;;;;;;3.10;2.25;;;;;;;3.04;72.87;100657.41;5031731;28;20047;-81
2021/01/26 02:47:47;;;;;;;3.10;2.50;;;;;;;3.10;72.72;100660.69;5031674;28;20045;-81
2021/01/26 02:50:24;;;;;;;2.75;2.10;;;;;;;3.15;72.70;100657.94;5020903;28;20403;-81
2021/01/26 02:52:56;;;;;;;4.70;1.90;;;;;;;3.05;72.41;100657.38;5011882;28;20018;-81
2021/01/26 02:55:39;;;;;;;4.05;2.42;;;;;;;3.20;72.53;100657.75;5011900;28;20022;-81
2021/01/26 02:58:18;;;;;;;5.32;2.33;;;;;;;3.24;72.96;100656.75;5011891;28;20018;-81
2021/01/26 03:00:52;;;;;;;4.72;2.67;;;;;;;3.17;72.90;100654.38;5010812;28;20021;-81
2021/01/26 03:03:26;;;;;;;2.55;1.73;;;;;;;3.24;71.95;100651.56;5011772;28;20385;-81
2021/01/26 03:06:07;;;;;;;5.18;2.40;;;;;;;3.22;72.51;100659.44;5029751;28;20483;-81
2021/01/26 03:08:49;;;;;;;5.35;2.35;;;;;;;3.24;72.00;100661.94;5032059;28;20033;-81
2021/01/26 03:12:00;;;;;;;4.55;2.35;;;;;;;3.15;73.05;100652.72;5035557;28;20518;-81
2021/01/26 03:14:35;;;;;;;4.32;2.78;;;;;;;3.18;73.11;100653.50;5012451;28;20049;-81
2021/01/26 03:17:13;;;;;;;4.30;1.98;;;;;;;3.30;73.28;100648.78;5034123;28;20484;-81
2021/01/26 03:19:40;;;;;;;3.03;1.98;;;;;;;3.33;73.65;100643.47;5024611;28;20454;-80
2021/01/26 03:22:08;;;;;;;3.05;1.83;;;;;;;3.30;73.90;100652.22;5015609;28;20037;-81
2021/01/26 03:24:39;;;;;;;6.07;2.05;;;;;;;3.30;72.63;100647.03;5015492;28;20476;-81
2021/01/26 03:27:15;;;;;;;3.38;2.25;;;;;;;3.09;72.40;100648.59;5015445;28;20380;-81
2021/01/26 03:29:43;;;;;;;3.28;2.00;;;;;;;3.31;73.00;100648.72;5015477;28;20045;-81
2021/01/26 03:32:19;;;;;;;3.22;2.28;;;;;;;3.51;72.57;100645.44;5015410;28;20022;-81
2021/01/26 03:34:44;;;;;;;2.60;2.10;;;;;;;3.45;71.75;100643.06;5015152;28;20045;-81
2021/01/26 03:37:11;;;;;;;6.38;2.28;;;;;;;3.56;71.18;100647.88;5014746;28;20488;-81
2021/01/26 03:39:37;;;;;;;2.17;1.85;;;;;;;3.68;71.71;100647.44;5015175;28;20033;-81
2021/01/26 03:42:04;;;;;;;2.15;1.60;;;;;;;3.55;72.95;100641.00;5015228;28;20029;-81
2021/01/26 03:44:30;;;;;;;2.28;1.92;;;;;;;3.71;71.68;100641.28;5015053;28;20033;-81
2021/01/26 03:47:08;;;;;;;5.20;2.40;;;;;;;3.75;72.71;100640.28;5014934;28;20444;-81
2021/01/26 03:49:36;;;;;;;5.45;2.00;;;;;;;3.72;71.71;100632.59;5026177;28;20310;-81
2021/01/26 03:52:26;;;;;;;4.88;2.13;;;;;;;3.66;71.77;100640.63;5034714;28;20033;-81
2021/01/26 03:55:03;;;;;;;3.42;1.95;;;;;;;3.57;72.33;100642.66;5034693;28;20029;-81
2021/01/26 03:57:43;;;;;;;2.53;1.95;;;;;;;3.73;72.33;100634.28;5034772;28;20124;-81
2021/01/26 04:00:15;;;;;;;3.53;2.40;;;;;;;3.73;71.51;100631.69;5033383;28;20037;-81
2021/01/26 04:02:59;;;;;;;3.60;2.05;;;;;;;3.81;72.03;100639.22;5034635;28;20056;-81
2021/01/26 04:05:45;;;;;;;4.47;2.10;;;;;;;3.76;72.10;100629.00;4994859;28;20547;-81
2021/01/26 04:08:16;;;;;;;2.88;2.15;;;;;;;3.49;72.35;100629.06;4995170;28;20394;-81
2021/01/26 04:11:00;;;;;;;2.47;1.73;;;;;;;3.42;73.12;100635.38;4993901;28;20436;-81
2021/01/26 04:13:32;;;;;;;4.55;1.80;;;;;;;3.44;73.73;100633.59;4995315;28;20369;-81
2021/01/26 04:16:00;;;;;;;4.05;1.85;;;;;;;3.35;72.96;100641.69;4994897;28;20524;-82
2021/01/26 04:18:37;;;;;;;4.32;1.73;;;;;;;3.29;72.77;100640.13;5006762;28;20025;-81
2021/01/26 04:21:03;;;;;;;2.78;1.88;;;;;;;3.55;72.83;100644.44;5033869;28;20384;-81
2021/01/26 04:23:28;;;;;;;3.33;1.90;;;;;;;3.71;72.94;100631.78;5034195;28;20036;-81
2021/01/26 04:26:03;;;;;;;2.40;1.25;;;;;;;3.77;72.91;100633.28;5034293;28;20109;-81
2021/01/26 04:28:38;;;;;;;2.63;2.10;;;;;;;3.82;72.12;100631.38;5034074;28;20079;-81
2021/01/26 04:31:06;;;;;;;4.38;3.05;;;;;;;3.83;71.82;100627.00;5034140;28;20378;-81
2021/01/26 04:33:31;;;;;;;2.53;1.88;;;;;;;3.77;73.04;100628.06;5032518;28;20028;-81
2021/01/26 04:35:57;;;;;;;2.22;1.70;;;;;;;3.87;73.01;100632.06;5034166;28;20379;-81
2021/01/26 04:38:22;;;;;;;2.75;1.73;;;;;;;3.80;73.01;100634.94;5032644;28;20475;-81
2021/01/26 04:40:47;;;;;;;3.63;2.05;;;;;;;3.86;72.78;100632.94;5033944;28;20029;-80
2021/01/26 04:43:43;;;;;;;3.80;2.15;;;;;;;3.93;73.38;100634.44;5033887;28;20080;-81
2021/01/26 04:46:30;;;;;;;4.40;2.00;;;;;;;3.91;73.23;100632.78;5034016;28;20105;-81
2021/01/26 04:49:14;;;;;;;5.22;2.90;;;;;;;3.88;72.62;100628.53;5021441;28;20467;-81
2021/01/26 04:52:02;;;;;;;2.50;1.80;;;;;;;3.86;72.97;100630.34;5013994;28;20021;-81
2021/01/26 04:54:36;;;;;;;2.80;1.83;;;;;;;3.82;72.98;100639.16;5013917;28;20032;-81
2021/01/26 04:57:20;;;;;;;3.78;1.60;;;;;;;3.94;72.62;100638.72;5013873;28;20025;-81
2021/01/26 04:59:58;;;;;;;3.53;2.13;;;;;;;3.94;72.90;100627.47;5013772;28;20030;-81
2021/01/26 05:02:52;;;;;;;7.63;2.33;;;;;;;3.86;73.41;100637.31;5030036;28;20040;-81
2021/01/26 05:05:20;;;;;;;2.65;1.65;;;;;;;3.95;72.38;100635.22;5032305;28;20033;-81
2021/01/26 05:07:51;;;;;;;3.03;1.90;;;;;;;3.96;71.94;100625.66;5032077;28;20030;-81
2021/01/26 05:10:30;;;;;;;2.90;2.05;;;;;;;3.99;71.93;100628.16;5017810;28;20026;-81
2021/01/26 05:13:02;;;;;;;2.53;2.10;;;;;;;4.05;72.59;100627.94;5013909;28;20034;-81
2021/01/26 05:15:29;;;;;;;;;;;;;;;4.11;73.04;100629.47;5015016;28;20399;-81
2021/01/26 05:18:07;;;;;;;4.10;2.28;;;;;;;4.04;73.10;100625.38;5013366;28;19909;-81
2021/01/26 05:20:42;;;;;;;5.00;2.22;;;;;;;3.58;73.61;100626.16;5012087;28;20057;-81
2021/01/26 05:23:18;;;;;;;3.92;2.15;;;;;;;3.84;73.18;100632.16;5013184;28;20033;-81
2021/01/26 05:25:44;;;;;;;5.90;2.10;;;;;;;3.78;73.77;100628.03;5013156;28;20480;-81
2021/01/26 05:28:10;;;;;;;3.60;1.83;;;;;;;3.77;73.28;100617.69;5013267;28;20535;-81
2021/01/26 05:30:37;;;;;;;2.13;1.83;;;;;;;3.67;74.03;100618.94;5013816;28;20040;-81
2021/01/26 05:33:13;;;;;;;2.72;2.05;;;;;;;3.68;73.33;100615.44;5012328;28;20026;-81
2021/01/26 05:35:44;;;;;;;3.58;1.70;;;;;;;3.83;74.07;100617.50;5013055;28;20025;-81
2021/01/26 05:38:09;;;;;;;4.30;2.57;;;;;;;3.85;73.72;100617.41;5013067;28;20296;-81
2021/01/26 05:40:39;;;;;;;5.28;2.03;;;;;;;3.86;73.35;100622.56;5013082;28;20510;-81
2021/01/26 05:43:07;;;;;;;6.93;2.00;;;;;;;3.89;73.36;100609.47;5012985;28;20464;-81
2021/01/26 05:45:37;;;;;;;4.32;1.90;;;;;;;3.73;72.46;100609.19;5013514;28;20033;-81
2021/01/26 05:48:06;;;;;;;5.13;2.17;;;;;;;3.85;73.23;100614.81;4993156;28;20045;-81
2021/01/26 05:50:34;;;;;;;5.50;2.22;;;;;;;3.91;71.91;100607.66;4993336;28;20033;-81
2021/01/26 05:53:04;;;;;;;3.58;2.00;;;;;;;4.02;72.31;100611.59;4993148;28;20105;-81
2021/01/26 05:55:32;;;;;;;3.90;2.28;;;;;;;3.96;73.44;100605.72;4993135;28;20481;-81
2021/01/26 05:58:09;;;;;;;3.22;1.80;;;;;;;4.02;74.29;100609.84;4993200;28;20033;-81
2021/01/26 06:00:35;;;;;;;3.50;1.90;;;;;;;4.26;72.68;100600.25;5001452;28;20033;-81
2021/01/26 06:03:19;;;;;;;6.22;2.55;;;;;;;4.41;72.58;100605.78;5032173;28;20431;-81
2021/01/26 06:06:06;;;;;;;3.63;2.05;;;;;;;4.45;71.47;100603.00;5032408;28;20109;-81
2021/01/26 06:08:47;;;;;;;3.90;2.25;;;;;;;4.47;71.95;100600.34;5032135;28;20037;-81
2021/01/26 06:11:19;;;;;;;3.45;2.22;;;;;;;4.60;72.03;100601.56;5032304;28;20021;-81
2021/01/26 06:13:45;;;;;;;2.33;1.75;;;;;;;4.54;71.40;100584.44;5032717;28;20369;-81
2021/01/26 06:16:14;;;;;;;4.72;2.20;;;;;;;4.53;71.20;100590.53;5030633;28;20045;-81
2021/01/26 06:18:58;;;;;;;5.63;2.05;;;;;;;4.51;71.93;100586.31;5031964;28;20009;-81
2021/01/26 06:21:25;;;;;;;3.40;2.28;;;;;;;4.51;71.64;100583.72;5032341;28;20030;-81
2021/01/26 06:23:50;;;;;;;4.32;1.92;;;;;;;4.56;72.19;100581.75;5032034;28;20043;-81
2021/01/26 06:26:15;;;;;;;3.67;1.90;;;;;;;4.57;72.10;100575.66;5032119;28;20025;-81
2021/01/26 06:28:44;;;;;;;3.85;1.83;;;;;;;4.53;72.12;100581.91;5031951;28;20511;-81
2021/01/26 06:31:30;;;;;;;2.63;1.77;;;;;;;4.58;71.88;100572.16;5021141;28;20034;-81
2021/01/26 06:34:19;;;;;;;4.32;1.98;;;;;;;4.66;70.87;100571.84;5012395;28;20026;-81
2021/01/26 06:37:09;;;;;;;5.53;2.22;;;;;;;4.57;70.11;100570.47;5012261;28;20121;-81
2021/01/26 06:40:10;;;;;;;2.88;1.77;;;;;;;4.61;72.38;100560.78;5012007;28;20037;-81
2021/01/26 06:42:52;;;;;;;4.82;2.10;;;;;;;4.41;71.21;100564.19;5011879;28;20037;-81
2021/01/26 06:45:35;;;;;;;5.28;2.13;;;;;;;4.52;70.37;100572.41;5017373;28;20032;-81
2021/01/26 06:48:36;;;;;;;5.03;1.88;;;;;;;4.60;70.52;100569.50;5031631;28;20036;-81
2021/01/26 06:51:14;;;;;;;7.03;2.20;;;;;;;4.51;71.62;100568.97;5031667;28;20032;-81
2021/01/26 06:53:42;;;;;;;2.92;1.85;;;;;;;4.64;71.88;100586.66;5031813;28;20092;-81
2021/01/26 06:56:25;;;;;;;3.05;1.90;;;;;;;4.65;71.47;100586.59;5030480;28;20051;-81
2021/01/26 06:59:07;;;;;;;4.20;1.63;;;;;;;4.57;71.90;100589.50;5030570;28;20121;-81
2021/01/26 07:01:56;;;;;;;3.40;1.92;;;;;;;4.52;71.29;100585.41;5013220;28;20480;-81
2021/01/26 07:04:26;;;;;;;2.83;2.00;;;;;;;4.53;72.52;100579.31;5011978;28;20034;-81
2021/01/26 07:07:04;;;;;;;2.90;1.80;;;;;;;4.64;71.51;100577.13;5011900;28;20026;-81
2021/01/26 07:09:48;;;;;;;2.90;1.70;;;;;;;4.70;72.25;100576.88;5012128;28;20373;-81
2021/01/26 07:12:32;;;;;;;5.20;1.83;;;;;;;4.50;71.42;100580.28;5010523;28;20028;-81
2021/01/26 07:15:09;;;;;;;3.53;1.52;;;;;;;4.41;72.19;100574.59;5018390;28;20488;-81
2021/01/26 07:17:49;;;;;;;3.88;1.80;;;;;;;4.39;72.31;100576.41;5031545;28;20041;-81
2021/01/26 07:20:39;;;;;;;3.85;1.92;;;;;;;4.42;72.01;100578.88;5031511;28;20088;-81
2021/01/26 07:23:22;;;;;;;6.30;1.83;;;;;;;4.54;71.69;100578.38;5031409;28;20025;-81
2021/01/26 07:26:21;;;;;;;2.38;1.60;;;;;;;4.91;70.88;100587.28;5031573;28;20029;-81
2021/01/26 07:28:46;;;;;;;5.88;1.75;;;;;;;5.06;70.93;100594.47;5026406;28;20075;-81
2021/01/26 07:31:27;;;;;;;4.10;1.77;;;;;;;4.82;71.65;100605.88;5031391;28;20021;-81
2021/01/26 07:34:03;;;;;;;2.50;1.40;;;;;;;4.95;70.46;100610.50;5031412;28;20025;-81
2021/01/26 07:36:41;;;;;;;2.40;1.60;;;;;;;5.03;70.55;100594.56;5030333;28;20075;-81
2021/01/26 07:39:21;;;;;;;3.65;1.40;;;;;;;4.99;70.74;100594.78;5031457;28;20021;-81
2021/01/26 07:42:20;;;;;;;4.95;1.85;;;;;;;4.93;71.26;100596.72;5031386;28;20108;-81
2021/01/26 07:44:48;;;;;;;1.92;1.40;;;;;;;4.84;71.18;100580.63;5027432;28;20037;-81
2021/01/26 07:47:50;;;;;;;1.90;1.52;;;;;;;4.88;71.15;100569.22;5027739;28;20034;-81
2021/01/26 07:50:18;;;;;;;1.77;1.38;;;;;;;4.88;71.74;100567.47;4966961;28;20099;-81
2021/01/26 07:52:47;;;;;;;1.60;1.40;;;;;;;4.95;72.35;100566.28;5010780;28;20041;-82
2021/01/26 07:55:17;;;;;;;4.28;1.70;;;;;;;4.99;72.37;100574.81;5011257;28;20025;-81
2021/01/26 07:58:02;;;;;;;2.17;1.70;;;;;;;5.03;70.37;100591.13;5014636;28;20492;-81
2021/01/26 08:00:31;;;;;;;1.67;1.58;;;;;;;4.79;70.95;100596.44;5014748;28;20473;-82
2021/01/26 08:02:58;;;;;;;2.03;1.75;;;;;;;4.93;70.67;100593.28;5013897;28;20036;-81
2021/01/26 08:05:59;;;;;;;2.92;1.88;;;;;;;5.05;70.92;100599.72;5014563;28;20036;-80
2021/01/26 08:08:32;;;;;;;4.57;1.88;;;;;;;5.04;70.39;100598.88;4982553;28;20109;-80
2021/01/26 08:11:06;;;;;;;1.88;1.77;;;;;;;5.13;70.72;100597.66;5014648;28;20108;-80
2021/01/26 08:13:32;;;;;;;2.70;1.83;;;;;;;5.22;70.29;100599.03;5022132;28;20026;-80
2021/01/26 08:16:14;;;;;;;5.35;2.00;;;;;;;5.31;70.32;100601.22;5032756;28;20025;-80
2021/01/26 08:18:41;;;;;;;4.50;1.95;;;;;;;5.38;70.49;100620.03;5020226;28;20021;-83
2021/01/26 08:21:47;;;;;;;6.25;2.30;;;;;;;5.44;70.25;100615.41;5022222;28;20434;-82
2021/01/26 08:24:27;;;;;;;3.50;2.10;;;;;;;5.66;69.15;100611.88;4972969;28;20038;-81
2021/01/26 08:26:55;;;;;;;5.95;2.22;;;;;;;5.85;69.86;100610.13;4972984;28;20520;-81
2021/01/26 08:29:47;;;;;;;5.28;3.25;;;;;;;5.97;68.75;100600.94;4997266;28;20377;-81
2021/01/26 08:32:27;;;;;;;5.93;2.08;;;;;;;6.11;67.76;100597.72;5012224;28;20026;-81
2021/01/26 08:35:06;;;;;;;6.22;2.35;;;;;;;6.14;68.55;100603.63;5013925;28;20494;-81
2021/01/26 08:37:41;;;;;;;6.05;2.60;;;;;;;6.19;67.59;100598.19;5028621;28;20108;-82
2021/01/26 08:40:12;;;;;;;3.42;2.08;;;;;;;6.14;68.73;100590.59;5014068;28;20026;-81
2021/01/26 08:42:40;;;;;;;8.20;2.58;;;;;;;6.07;69.46;100598.78;5017673;28;20424;-82
2021/01/26 08:45:27;;;;;;;3.20;2.35;;;;;;;6.06;69.34;100594.47;5014180;28;20591;-81
2021/01/26 08:47:57;;;;;;;2.35;1.65;;;;;;;6.07;69.79;100593.56;5005478;28;20089;-81
2021/01/26 08:50:32;;;;;;;6.20;2.65;;;;;;;6.05;69.74;100595.38;5012658;28;20076;-80
2021/01/26 08:53:30;;;;;;;6.10;2.65;;;;;;;5.98;71.02;100599.19;5013455;28;20033;-82
2021/01/26 08:56:03;;;;;;;3.88;2.33;;;;;;;6.05;70.13;100598.00;5025279;28;20387;-80
2021/01/26 08:59:01;;;;;;;4.28;2.42;;;;;;;6.08;70.62;100595.22;5023312;28;20033;-80
2021/01/26 09:01:29;;;;;;;4.88;2.33;;;;;;;6.03;70.56;100598.06;4989832;28;20459;-81
2021/01/26 09:04:14;;;;;;;2.72;1.83;;;;;;;6.03;70.25;100584.19;5012823;28;20380;-81
2021/01/26 09:06:42;;;;;;;3.63;2.40;;;;;;;6.04;70.79;100588.47;5016315;28;20033;-81
2021/01/26 09:09:31;;;;;;;3.20;2.42;;;;;;;6.05;70.86;100582.34;5016188;28;20065;-80
2021/01/26 09:12:03;;;;;;;2.53;1.75;;;;;;;6.09;71.03;100571.69;5011098;28;20034;-80
2021/01/26 09:14:37;;;;;;;2.65;2.10;;;;;;;6.25;70.37;100577.03;5013739;28;20041;-80
2021/01/26 09:17:07;;;;;;;3.38;2.15;;;;;;;6.19;71.42;100587.75;5012538;28;20521;-80
2021/01/26 09:19:43;;;;;;;3.05;1.77;;;;;;;6.22;70.70;100592.84;4993822;28;20081;-81
2021/01/26 09:22:29;;;;;;;2.25;1.83;;;;;;;6.25;70.92;100587.47;5009339;28;20480;-81
2021/01/26 09:25:01;;;;;;;4.15;2.67;;;;;;;6.32;70.25;100581.06;5020999;28;20030;-81
2021/01/26 09:27:35;;;;;;;8.77;3.38;;;;;;;6.25;70.36;100576.22;5014376;28;20045;-81
2021/01/26 09:30:11;;;;;;;3.35;2.03;;;;;;;6.42;70.59;100583.22;5013446;28;20029;-84
2021/01/26 09:32:38;;;;;;;7.75;2.90;;;;;;;6.59;68.62;100575.41;5012211;28;20033;-80
2021/01/26 09:35:21;;;;;;;5.45;2.63;;;;;;;6.69;67.87;100568.81;5025099;28;20053;-80
2021/01/26 09:37:57;;;;;;;5.25;2.47;;;;;;;6.70;67.26;100572.31;5020931;28;20468;-80
2021/01/26 09:40:22;;;;;;;4.28;2.50;;;;;;;6.80;67.84;100572.69;5022307;28;20022;-80
2021/01/26 09:42:48;;;;;;;8.88;2.85;;;;;;;6.88;67.67;100576.59;5018913;28;20393;-80
2021/01/26 09:45:17;;;;;;;3.70;2.30;;;;;;;6.61;69.05;100563.16;5023084;28;20061;-80
2021/01/26 09:47:43;;;;;;;3.15;2.30;;;;;;;6.77;68.83;100562.41;5021917;28;20504;-80
2021/01/26 09:50:13;;;;;;;5.13;2.28;;;;;;;6.83;68.89;100572.53;5023894;28;20040;-80
2021/01/26 09:52:40;;;;;;;4.03;2.50;;;;;;;6.72;68.94;100568.69;5012147;28;20018;-80
2021/01/26 09:55:12;;;;;;;3.50;2.00;;;;;;;6.79;69.16;100565.78;5023229;28;20033;-80
2021/01/26 09:57:38;;;;;;;10.80;2.15;;;;;;;6.64;69.09;100551.75;5017109;28;20476;-81
2021/01/26 10:00:11;;;;;;;4.32;1.90;;;;;;;6.70;69.56;100554.88;5020320;28;20507;-80
2021/01/26 10:02:38;;;;;;;6.60;1.90;;;;;;;6.54;69.69;100546.13;5026950;28;20487;-80
2021/01/26 10:05:11;;;;;;;4.03;1.30;;;;;;;6.65;69.54;100529.94;5028038;28;20025;-80
2021/01/26 10:07:36;;;;;;;2.53;1.42;;;;;;;6.47;69.51;100523.84;5025137;28;20502;-80
2021/01/26 10:10:27;;;;;;;2.38;1.40;;;;;;;6.74;68.82;100517.25;5019003;28;20021;-80
2021/01/26 10:12:53;;;;;;;4.13;1.00;;;;;;;6.99;68.40;100513.44;5013552;28;20033;-80
2021/01/26 10:15:24;;;;;;;4.63;1.42;;;;;;;6.88;68.72;100523.56;5019365;28;20490;-79
2021/01/26 10:18:02;;;;;;;2.95;1.10;;;;;;;6.88;69.10;100524.41;5025903;28;20033;-79
2021/01/26 10:20:39;;;;;;;5.63;1.30;;;;;;;6.75;69.71;100525.94;5028045;28;20037;-80
2021/01/26 10:23:10;;;;;;;4.78;1.45;;;;;;;6.94;69.40;100516.25;5012094;28;20022;-80
2021/01/26 10:25:37;;;;;;;3.78;1.13;;;;;;;6.95;69.06;100514.47;5012303;28;20156;-80
2021/01/26 10:28:19;;;;;;;4.43;1.10;;;;;;;7.09;68.06;100509.41;5014647;28;20044;-80
2021/01/26 10:30:46;;;;;;;2.50;1.00;;;;;;;6.83;69.11;100505.53;5012069;28;20057;-80
2021/01/26 10:33:38;;;;;;;4.60;1.20;;;;;;;6.88;68.77;100502.69;5012032;28;20526;-80
2021/01/26 10:36:22;;;;;;;3.92;1.30;;;;;;;6.79;68.87;100503.13;5012073;28;20567;-80
2021/01/26 10:38:48;;;;;;;3.05;1.15;;;;;;;6.87;68.99;100487.94;5012094;28;20121;-80
2021/01/26 10:41:13;;;;;;;2.58;1.10;;;;;;;6.98;69.18;100488.22;5012511;28;20109;-80
2021/01/26 10:43:40;;;;;;;3.40;1.08;;;;;;;6.92;69.74;100475.50;5029426;28;20095;-81
2021/01/26 10:46:11;;;;;;;3.53;1.40;;;;;;;6.73;69.72;100472.97;5030449;28;20137;-81
2021/01/26 10:48:42;;;;;;;2.90;2.30;;;;;;;6.92;69.65;100472.88;5020706;28;20061;-81
2021/01/26 10:51:15;;;;;;;2.50;1.02;;;;;;;6.72;70.21;100466.91;5011828;28;20072;-81
2021/01/26 10:53:47;;;;;;;3.25;1.20;;;;;;;6.82;69.72;100448.19;5011968;28;20026;-81
2021/01/26 10:56:13;;;;;;;2.33;1.20;;;;;;;7.00;69.46;100443.78;5012111;28;20018;-81
2021/01/26 10:58:46;;;;;;;3.80;1.25;;;;;;;7.06;69.49;100436.44;5011779;28;20538;-81
2021/01/26 11:01:19;;;;;;;2.55;1.17;;;;;;;6.65;70.58;100429.00;5011680;28;20045;-81
2021/01/26 11:03:44;;;;;;;6.53;1.67;;;;;;;7.03;69.28;100430.53;5029065;28;20131;-81
2021/01/26 11:06:10;;;;;;;3.53;1.70;;;;;;;7.10;69.66;100451.03;5028897;28;20044;-81
2021/01/26 11:08:36;;;;;;;2.15;1.30;;;;;;;6.94;70.10;100460.59;5011426;28;20065;-81
2021/01/26 11:11:02;;;;;;;3.75;1.58;;;;;;;7.02;69.89;100447.16;5011599;28;20042;-80
2021/01/26 11:13:28;;;;;;;3.97;1.50;;;;;;;7.12;70.50;100441.34;5012239;28;20022;-80
2021/01/26 11:15:53;;;;;;;4.38;1.50;;;;;;;7.22;69.77;100443.47;5011731;28;20392;-80
2021/01/26 11:18:19;;;;;;;7.70;1.75;;;;;;;7.12;70.07;100467.47;5015739;28;20036;-81
2021/01/26 11:20:44;;;;;;;5.30;1.35;;;;;;;7.33;70.11;100464.66;5011535;28;20372;-80
2021/01/26 11:23:10;;;;;;;6.47;1.60;;;;;;;7.31;69.35;100456.06;5011582;28;20032;-80
2021/01/26 11:25:36;;;;;;;3.22;1.13;;;;;;;7.19;70.11;100459.31;5021450;28;20030;-82
2021/01/26 11:28:04;;;;;;;5.85;1.50;;;;;;;7.24;70.54;100473.81;5012337;28;20030;-82
2021/01/26 11:30:30;;;;;;;2.38;1.25;;;;;;;7.46;69.24;100478.72;5013889;28;20029;-81
2021/01/26 11:32:56;;;;;;;4.47;1.52;;;;;;;7.39;70.25;100482.59;5019975;28;20021;-85
2021/01/26 11:35:24;;;;;;;3.30;1.20;;;;;;;7.49;70.38;100483.78;5016553;28;20503;-84
2021/01/26 11:37:50;;;;;;;5.65;1.48;;;;;;;7.59;69.97;100472.84;5015737;28;20514;-84
2021/01/26 11:40:16;;;;;;;3.00;1.17;;;;;;;7.77;69.84;100464.00;5017594;28;20050;-81
2021/01/26 11:42:42;;;;;;;4.35;1.27;;;;;;;7.75;69.51;100456.22;5016130;28;20037;-82
2021/01/26 11:45:11;;;;;;;2.08;1.30;;;;;;;7.82;69.93;100464.59;5001538;28;20025;-84
2021/01/26 11:47:37;;;;;;;4.95;1.50;;;;;;;7.67;70.17;100450.59;5016934;28;20037;-82
2021/01/26 11:50:05;;;;;;;9.15;1.92;;;;;;;7.88;69.65;100438.09;5024012;28;20132;-83
2021/01/26 11:52:30;;;;;;;4.15;1.52;;;;;;;7.87;70.13;100414.66;5017076;28;20380;-83
2021/01/26 11:54:55;;;;;;;5.22;1.30;;;;;;;8.04;69.93;100388.41;5003002;28;20112;-82
2021/01/26 11:57:21;;;;;;;2.70;1.30;;;;;;;7.84;70.59;100380.84;5015603;28;20072;-84
2021/01/26 11:59:47;;;;;;;10.98;2.53;;;;;;;8.17;70.20;100396.34;5015469;28;20053;-82
2021/01/26 12:02:12;;;;;;;2.95;1.90;;;;;;;7.99;71.01;100403.50;5025125;28;20471;-81
2021/01/26 12:04:37;;;;;;;3.92;1.60;;;;;;;8.25;70.16;100382.84;5031243;28;20213;-80